sensor_id;sensor_type;location;lat;lon;timestamp;pressure;altitude;pressure_sealevel;temperature;humidity
8366;BME280;4220;42.502;24.188;2023-07-02T00:01:48;94605.88;;;20.09;100.00
8366;BME280;4220;42.502;24.188;2023-07-02T00:04:15;94622.00;;;20.09;100.00
8366;BME280;4220;42.502;24.188;2023-07-02T00:06:46;94610.50;;;20.04;100.00
8366;BME280;4220;42.502;24.188;2023-07-02T00:09:14;94613.72;;;19.87;100.00
8366;BME280;4220;42.502;24.188;2023-07-02T00:11:42;94612.03;;;19.73;100.00
8366;BME280;4220;42.502;24.188;2023-07-02T00:14:10;94612.22;;;19.58;100.00
8366;BME280;4220;42.502;24.188;2023-07-02T00:16:39;94571.16;;;19.28;100.00
8366;BME280;4220;42.502;24.188;2023-07-02T00:19:06;94603.63;;;19.32;100.00
8366;BME280;4220;42.502;24.188;2023-07-02T00:21:33;94603.06;;;19.35;100.00
8366;BME280;4220;42.502;24.188;2023-07-02T00:24:04;94607.13;;;19.32;100.00
8366;BME280;4220;42.502;24.188;2023-07-02T00:26:31;94604.69;;;19.36;100.00
8366;BME280;4220;42.502;24.188;2023-07-02T00:28:58;94589.50;;;18.98;100.00
8366;BME280;4220;42.502;24.188;2023-07-02T00:31:25;94603.41;;;19.05;100.00
8366;BME280;4220;42.502;24.188;2023-07-02T00:33:51;94608.38;;;18.92;100.00
8366;BME280;4220;42.502;24.188;2023-07-02T00:36:18;94597.69;;;18.87;100.00
8366;BME280;4220;42.502;24.188;2023-07-02T00:38:46;94592.75;;;18.71;100.00
8366;BME280;4220;42.502;24.188;2023-07-02T00:41:15;94595.72;;;18.69;100.00
8366;BME280;4220;42.502;24.188;2023-07-02T00:43:42;94594.47;;;18.85;100.00
8366;BME280;4220;42.502;24.188;2023-07-02T00:46:11;94598.72;;;18.91;100.00
8366;BME280;4220;42.502;24.188;2023-07-02T00:48:43;94581.44;;;18.98;100.00
8366;BME280;4220;42.502;24.188;2023-07-02T00:51:13;94565.50;;;18.54;100.00
8366;BME280;4220;42.502;24.188;2023-07-02T00:53:41;94585.53;;;18.66;100.00
8366;BME280;4220;42.502;24.188;2023-07-02T00:56:08;94590.81;;;18.76;100.00
8366;BME280;4220;42.502;24.188;2023-07-02T00:58:39;94564.97;;;18.80;100.00
8366;BME280;4220;42.502;24.188;2023-07-02T01:01:06;94578.50;;;18.99;100.00
8366;BME280;4220;42.502;24.188;2023-07-02T01:03:34;94575.56;;;19.19;100.00
8366;BME280;4220;42.502;24.188;2023-07-02T01:06:03;94580.00;;;19.29;100.00
8366;BME280;4220;42.502;24.188;2023-07-02T01:08:29;94570.47;;;19.41;100.00
8366;BME280;4220;42.502;24.188;2023-07-02T01:10:57;94565.03;;;19.23;100.00
8366;BME280;4220;42.502;24.188;2023-07-02T01:13:25;94562.34;;;19.23;100.00
8366;BME280;4220;42.502;24.188;2023-07-02T01:15:54;94567.59;;;19.33;100.00
8366;BME280;4220;42.502;24.188;2023-07-02T01:18:22;94548.47;;;19.34;100.00
8366;BME280;4220;42.502;24.188;2023-07-02T01:20:51;94566.56;;;19.52;100.00
8366;BME280;4220;42.502;24.188;2023-07-02T01:23:19;94554.94;;;19.57;100.00
8366;BME280;4220;42.502;24.188;2023-07-02T01:25:46;94562.78;;;19.53;100.00
8366;BME280;4220;42.502;24.188;2023-07-02T01:28:13;94550.88;;;19.60;100.00
8366;BME280;4220;42.502;24.188;2023-07-02T01:30:40;94551.25;;;19.53;100.00
8366;BME280;4220;42.502;24.188;2023-07-02T01:33:07;94542.69;;;19.46;100.00
8366;BME280;4220;42.502;24.188;2023-07-02T01:35:34;94548.00;;;19.51;100.00
8366;BME280;4220;42.502;24.188;2023-07-02T01:38:02;94549.91;;;19.27;100.00
8366;BME280;4220;42.502;24.188;2023-07-02T01:40:29;94549.31;;;18.87;100.00
8366;BME280;4220;42.502;24.188;2023-07-02T01:42:56;94554.78;;;18.77;100.00
8366;BME280;4220;42.502;24.188;2023-07-02T01:45:22;94556.47;;;18.73;100.00
8366;BME280;4220;42.502;24.188;2023-07-02T01:47:49;94556.75;;;18.72;100.00
8366;BME280;4220;42.502;24.188;2023-07-02T01:50:16;94574.25;;;18.69;100.00
8366;BME280;4220;42.502;24.188;2023-07-02T01:52:43;94555.44;;;18.69;100.00
8366;BME280;4220;42.502;24.188;2023-07-02T01:55:11;94548.03;;;18.80;100.00
8366;BME280;4220;42.502;24.188;2023-07-02T01:57:38;94546.22;;;18.75;100.00
8366;BME280;4220;42.502;24.188;2023-07-02T02:00:06;94520.06;;;18.62;100.00
8366;BME280;4220;42.502;24.188;2023-07-02T02:02:34;94555.19;;;18.89;100.00
8366;BME280;4220;42.502;24.188;2023-07-02T02:05:01;94544.38;;;18.94;100.00
8366;BME280;4220;42.502;24.188;2023-07-02T02:07:27;94548.41;;;18.97;100.00
8366;BME280;4220;42.502;24.188;2023-07-02T02:09:54;94546.81;;;18.96;100.00
8366;BME280;4220;42.502;24.188;2023-07-02T02:12:23;94549.09;;;19.08;100.00
8366;BME280;4220;42.502;24.188;2023-07-02T02:14:49;94546.78;;;19.20;100.00
8366;BME280;4220;42.502;24.188;2023-07-02T02:17:16;94558.47;;;19.10;100.00
8366;BME280;4220;42.502;24.188;2023-07-02T02:19:43;94557.00;;;18.99;100.00
8366;BME280;4220;42.502;24.188;2023-07-02T02:22:10;94540.28;;;18.78;100.00
8366;BME280;4220;42.502;24.188;2023-07-02T02:24:37;94556.47;;;18.73;100.00
8366;BME280;4220;42.502;24.188;2023-07-02T02:27:04;94574.75;;;18.71;100.00
8366;BME280;4220;42.502;24.188;2023-07-02T02:29:32;94575.00;;;18.70;100.00
8366;BME280;4220;42.502;24.188;2023-07-02T02:31:59;94590.78;;;18.81;100.00
8366;BME280;4220;42.502;24.188;2023-07-02T02:34:26;94595.56;;;18.56;100.00
8366;BME280;4220;42.502;24.188;2023-07-02T02:36:54;94599.03;;;18.61;100.00
8366;BME280;4220;42.502;24.188;2023-07-02T02:39:22;94591.94;;;18.70;100.00
8366;BME280;4220;42.502;24.188;2023-07-02T02:41:49;94598.81;;;18.81;100.00
8366;BME280;4220;42.502;24.188;2023-07-02T02:44:16;94601.97;;;18.88;100.00
8366;BME280;4220;42.502;24.188;2023-07-02T02:46:44;94586.97;;;18.82;100.00
8366;BME280;4220;42.502;24.188;2023-07-02T02:49:11;94605.19;;;18.62;100.00
8366;BME280;4220;42.502;24.188;2023-07-02T02:51:38;94597.88;;;18.34;100.00
8366;BME280;4220;42.502;24.188;2023-07-02T02:54:06;94604.13;;;18.24;100.00
8366;BME280;4220;42.502;24.188;2023-07-02T02:56:32;94603.53;;;18.32;100.00
8366;BME280;4220;42.502;24.188;2023-07-02T02:58:59;94596.59;;;18.26;100.00
8366;BME280;4220;42.502;24.188;2023-07-02T03:01:26;94598.94;;;18.38;100.00
8366;BME280;4220;42.502;24.188;2023-07-02T03:03:58;94592.94;;;18.46;100.00
8366;BME280;4220;42.502;24.188;2023-07-02T03:06:25;94606.19;;;18.37;100.00
8366;BME280;4220;42.502;24.188;2023-07-02T03:08:52;94614.88;;;18.24;100.00
8366;BME280;4220;42.502;24.188;2023-07-02T03:11:19;94612.34;;;17.99;100.00
8366;BME280;4220;42.502;24.188;2023-07-02T03:13:45;94614.03;;;17.90;100.00
8366;BME280;4220;42.502;24.188;2023-07-02T03:16:12;94615.84;;;17.99;100.00
8366;BME280;4220;42.502;24.188;2023-07-02T03:18:39;94618.31;;;18.29;100.00
8366;BME280;4220;42.502;24.188;2023-07-02T03:21:08;94617.88;;;18.56;100.00
8366;BME280;4220;42.502;24.188;2023-07-02T03:23:35;94610.22;;;18.68;100.00
8366;BME280;4220;42.502;24.188;2023-07-02T03:26:02;94616.47;;;18.87;100.00
8366;BME280;4220;42.502;24.188;2023-07-02T03:28:29;94613.75;;;18.92;100.00
8366;BME280;4220;42.502;24.188;2023-07-02T03:30:56;94612.56;;;19.04;100.00
8366;BME280;4220;42.502;24.188;2023-07-02T03:33:22;94602.66;;;19.23;100.00
8366;BME280;4220;42.502;24.188;2023-07-02T03:35:49;94595.53;;;19.37;100.00
8366;BME280;4220;42.502;24.188;2023-07-02T03:38:17;94606.03;;;19.57;100.00
8366;BME280;4220;42.502;24.188;2023-07-02T03:40:45;94615.00;;;19.71;100.00
8366;BME280;4220;42.502;24.188;2023-07-02T03:43:11;94622.34;;;19.66;100.00
8366;BME280;4220;42.502;24.188;2023-07-02T03:45:38;94620.47;;;19.19;100.00
8366;BME280;4220;42.502;24.188;2023-07-02T03:48:05;94626.97;;;19.13;100.00
8366;BME280;4220;42.502;24.188;2023-07-02T03:50:32;94632.81;;;18.96;100.00
8366;BME280;4220;42.502;24.188;2023-07-02T03:52:59;94634.28;;;18.83;100.00
8366;BME280;4220;42.502;24.188;2023-07-02T03:55:27;94637.97;;;18.87;100.00
8366;BME280;4220;42.502;24.188;2023-07-02T03:57:54;94635.19;;;18.98;100.00
8366;BME280;4220;42.502;24.188;2023-07-02T04:00:21;94642.84;;;18.85;100.00
8366;BME280;4220;42.502;24.188;2023-07-02T04:02:47;94634.06;;;18.75;100.00
8366;BME280;4220;42.502;24.188;2023-07-02T04:05:14;94633.19;;;18.84;100.00
8366;BME280;4220;42.502;24.188;2023-07-02T04:07:42;94619.75;;;18.84;100.00
8366;BME280;4220;42.502;24.188;2023-07-02T04:10:09;94615.75;;;18.82;100.00
8366;BME280;4220;42.502;24.188;2023-07-02T04:12:37;94616.69;;;18.96;100.00
8366;BME280;4220;42.502;24.188;2023-07-02T04:15:05;94616.41;;;19.21;100.00
8366;BME280;4220;42.502;24.188;2023-07-02T04:17:32;94618.59;;;19.43;100.00
8366;BME280;4220;42.502;24.188;2023-07-02T04:20:00;94609.75;;;19.61;100.00
8366;BME280;4220;42.502;24.188;2023-07-02T04:22:29;94616.53;;;19.77;100.00
8366;BME280;4220;42.502;24.188;2023-07-02T04:24:56;94623.38;;;19.88;100.00
8366;BME280;4220;42.502;24.188;2023-07-02T04:27:23;94617.28;;;20.01;100.00
8366;BME280;4220;42.502;24.188;2023-07-02T04:29:52;94613.63;;;20.11;100.00
8366;BME280;4220;42.502;24.188;2023-07-02T04:32:20;94598.13;;;20.21;100.00
8366;BME280;4220;42.502;24.188;2023-07-02T04:34:47;94606.50;;;20.39;100.00
8366;BME280;4220;42.502;24.188;2023-07-02T04:37:14;94610.09;;;20.34;100.00
8366;BME280;4220;42.502;24.188;2023-07-02T04:39:41;94614.56;;;20.20;100.00
8366;BME280;4220;42.502;24.188;2023-07-02T04:42:08;94617.41;;;19.91;100.00
8366;BME280;4220;42.502;24.188;2023-07-02T04:44:38;94626.94;;;19.84;100.00
8366;BME280;4220;42.502;24.188;2023-07-02T04:47:10;94634.56;;;19.95;100.00
8366;BME280;4220;42.502;24.188;2023-07-02T04:49:36;94638.59;;;20.16;100.00
8366;BME280;4220;42.502;24.188;2023-07-02T04:52:03;94634.09;;;20.31;100.00
8366;BME280;4220;42.502;24.188;2023-07-02T04:54:30;94633.44;;;20.39;100.00
8366;BME280;4220;42.502;24.188;2023-07-02T04:56:57;94642.84;;;20.41;100.00
8366;BME280;4220;42.502;24.188;2023-07-02T04:59:24;94628.22;;;20.29;100.00
8366;BME280;4220;42.502;24.188;2023-07-02T05:01:51;94644.72;;;20.41;100.00
8366;BME280;4220;42.502;24.188;2023-07-02T05:04:19;94669.38;;;20.48;100.00
8366;BME280;4220;42.502;24.188;2023-07-02T05:06:46;94674.84;;;20.43;100.00
8366;BME280;4220;42.502;24.188;2023-07-02T05:09:13;94680.41;;;20.51;100.00
8366;BME280;4220;42.502;24.188;2023-07-02T05:11:40;94675.44;;;20.58;100.00
8366;BME280;4220;42.502;24.188;2023-07-02T05:14:07;94681.63;;;20.59;100.00
8366;BME280;4220;42.502;24.188;2023-07-02T05:16:33;94691.78;;;20.62;100.00
8366;BME280;4220;42.502;24.188;2023-07-02T05:19:00;94685.91;;;20.60;100.00
8366;BME280;4220;42.502;24.188;2023-07-02T05:21:29;94702.88;;;20.60;100.00
8366;BME280;4220;42.502;24.188;2023-07-02T05:23:56;94695.03;;;20.64;100.00
8366;BME280;4220;42.502;24.188;2023-07-02T05:26:22;94702.56;;;20.62;100.00
8366;BME280;4220;42.502;24.188;2023-07-02T05:28:49;94711.78;;;20.61;100.00
8366;BME280;4220;42.502;24.188;2023-07-02T05:31:16;94708.50;;;20.64;100.00
8366;BME280;4220;42.502;24.188;2023-07-02T05:33:43;94704.63;;;20.70;100.00
8366;BME280;4220;42.502;24.188;2023-07-02T05:36:10;94704.22;;;20.76;100.00
8366;BME280;4220;42.502;24.188;2023-07-02T05:38:38;94687.28;;;20.76;100.00
8366;BME280;4220;42.502;24.188;2023-07-02T05:41:05;94703.88;;;20.83;100.00
8366;BME280;4220;42.502;24.188;2023-07-02T05:43:31;94711.25;;;20.91;100.00
8366;BME280;4220;42.502;24.188;2023-07-02T05:45:59;94699.72;;;20.72;100.00
8366;BME280;4220;42.502;24.188;2023-07-02T05:48:26;94721.72;;;20.79;100.00
8366;BME280;4220;42.502;24.188;2023-07-02T05:50:54;94715.41;;;20.70;100.00
8366;BME280;4220;42.502;24.188;2023-07-02T05:53:21;94710.00;;;20.33;100.00
8366;BME280;4220;42.502;24.188;2023-07-02T05:55:49;94713.22;;;20.35;100.00
8366;BME280;4220;42.502;24.188;2023-07-02T05:58:16;94711.13;;;20.32;100.00
8366;BME280;4220;42.502;24.188;2023-07-02T06:00:43;94707.47;;;20.23;100.00
8366;BME280;4220;42.502;24.188;2023-07-02T06:03:14;94717.38;;;20.46;100.00
8366;BME280;4220;42.502;24.188;2023-07-02T06:05:46;94724.06;;;20.48;100.00
8366;BME280;4220;42.502;24.188;2023-07-02T06:08:14;94720.66;;;20.24;100.00
8366;BME280;4220;42.502;24.188;2023-07-02T06:10:41;94713.00;;;20.31;100.00
8366;BME280;4220;42.502;24.188;2023-07-02T06:13:09;94702.13;;;20.17;100.00
8366;BME280;4220;42.502;24.188;2023-07-02T06:15:36;94719.31;;;20.21;100.00
8366;BME280;4220;42.502;24.188;2023-07-02T06:18:03;94708.59;;;20.16;100.00
8366;BME280;4220;42.502;24.188;2023-07-02T06:20:30;94704.63;;;20.33;100.00
8366;BME280;4220;42.502;24.188;2023-07-02T06:22:57;94709.28;;;20.46;100.00
8366;BME280;4220;42.502;24.188;2023-07-02T06:25:24;94700.69;;;20.25;100.00
8366;BME280;4220;42.502;24.188;2023-07-02T06:27:51;94694.44;;;20.30;100.00
8366;BME280;4220;42.502;24.188;2023-07-02T06:30:21;94697.06;;;20.35;100.00
8366;BME280;4220;42.502;24.188;2023-07-02T06:32:48;94689.41;;;20.23;100.00
8366;BME280;4220;42.502;24.188;2023-07-02T06:35:15;94682.13;;;20.42;100.00
8366;BME280;4220;42.502;24.188;2023-07-02T06:37:42;94667.78;;;20.47;100.00
8366;BME280;4220;42.502;24.188;2023-07-02T06:40:10;94662.06;;;20.67;100.00
8366;BME280;4220;42.502;24.188;2023-07-02T06:42:37;94657.75;;;20.84;100.00
8366;BME280;4220;42.502;24.188;2023-07-02T06:45:04;94649.03;;;21.06;100.00
8366;BME280;4220;42.502;24.188;2023-07-02T06:47:33;94646.47;;;21.28;100.00
8366;BME280;4220;42.502;24.188;2023-07-02T06:50:00;94631.09;;;21.42;100.00
8366;BME280;4220;42.502;24.188;2023-07-02T06:52:27;94645.28;;;21.48;100.00
8366;BME280;4220;42.502;24.188;2023-07-02T06:54:54;94661.47;;;21.62;100.00
8366;BME280;4220;42.502;24.188;2023-07-02T06:57:21;94665.75;;;21.63;100.00
8366;BME280;4220;42.502;24.188;2023-07-02T06:59:48;94665.28;;;21.74;100.00
8366;BME280;4220;42.502;24.188;2023-07-02T07:02:15;94667.25;;;21.82;100.00
8366;BME280;4220;42.502;24.188;2023-07-02T07:04:44;94679.56;;;22.02;100.00
8366;BME280;4220;42.502;24.188;2023-07-02T07:07:10;94677.88;;;21.79;100.00
8366;BME280;4220;42.502;24.188;2023-07-02T07:09:37;94680.25;;;21.53;100.00
8366;BME280;4220;42.502;24.188;2023-07-02T07:12:05;94673.25;;;21.25;100.00
8366;BME280;4220;42.502;24.188;2023-07-02T07:14:32;94675.22;;;21.19;100.00
8366;BME280;4220;42.502;24.188;2023-07-02T07:16:59;94678.34;;;21.26;100.00
8366;BME280;4220;42.502;24.188;2023-07-02T07:19:25;94667.06;;;21.24;100.00
8366;BME280;4220;42.502;24.188;2023-07-02T07:21:54;94641.56;;;21.17;100.00
8366;BME280;4220;42.502;24.188;2023-07-02T07:24:20;94678.34;;;21.26;100.00
8366;BME280;4220;42.502;24.188;2023-07-02T07:26:47;94678.75;;;21.33;100.00
8366;BME280;4220;42.502;24.188;2023-07-02T07:29:14;94649.41;;;21.00;100.00
8366;BME280;4220;42.502;24.188;2023-07-02T07:31:41;94676.22;;;21.23;100.00
8366;BME280;4220;42.502;24.188;2023-07-02T07:34:09;94675.53;;;21.31;100.00
8366;BME280;4220;42.502;24.188;2023-07-02T07:36:37;94666.06;;;21.47;100.00
8366;BME280;4220;42.502;24.188;2023-07-02T07:39:05;94671.75;;;21.46;100.00
8366;BME280;4220;42.502;24.188;2023-07-02T07:41:31;94678.06;;;21.41;100.00
8366;BME280;4220;42.502;24.188;2023-07-02T07:43:58;94684.25;;;21.56;100.00
8366;BME280;4220;42.502;24.188;2023-07-02T07:46:26;94677.84;;;21.65;100.00
8366;BME280;4220;42.502;24.188;2023-07-02T07:48:53;94684.41;;;21.91;100.00
8366;BME280;4220;42.502;24.188;2023-07-02T07:51:20;94662.69;;;21.96;100.00
8366;BME280;4220;42.502;24.188;2023-07-02T07:53:47;94676.91;;;22.24;100.00
8366;BME280;4220;42.502;24.188;2023-07-02T07:56:15;94689.75;;;22.54;100.00
8366;BME280;4220;42.502;24.188;2023-07-02T07:58:42;94689.34;;;22.83;100.00
8366;BME280;4220;42.502;24.188;2023-07-02T08:01:09;94696.19;;;23.03;100.00
8366;BME280;4220;42.502;24.188;2023-07-02T08:03:37;94692.34;;;23.26;100.00
8366;BME280;4220;42.502;24.188;2023-07-02T08:06:04;94689.94;;;23.24;100.00
8366;BME280;4220;42.502;24.188;2023-07-02T08:08:31;94704.66;;;23.10;100.00
8366;BME280;4220;42.502;24.188;2023-07-02T08:10:59;94697.78;;;22.82;100.00
8366;BME280;4220;42.502;24.188;2023-07-02T08:13:27;94690.03;;;22.66;100.00
8366;BME280;4220;42.502;24.188;2023-07-02T08:15:54;94697.91;;;22.76;100.00
8366;BME280;4220;42.502;24.188;2023-07-02T08:18:21;94694.28;;;22.81;100.00
8366;BME280;4220;42.502;24.188;2023-07-02T08:20:48;94691.44;;;22.86;100.00
8366;BME280;4220;42.502;24.188;2023-07-02T08:23:14;94690.72;;;22.94;100.00
8366;BME280;4220;42.502;24.188;2023-07-02T08:25:41;94683.94;;;23.05;100.00
8366;BME280;4220;42.502;24.188;2023-07-02T08:28:08;94686.31;;;23.29;100.00
8366;BME280;4220;42.502;24.188;2023-07-02T08:30:36;94693.13;;;23.49;100.00
8366;BME280;4220;42.502;24.188;2023-07-02T08:33:03;94697.81;;;23.65;100.00
8366;BME280;4220;42.502;24.188;2023-07-02T08:35:30;94673.38;;;23.48;100.00
8366;BME280;4220;42.502;24.188;2023-07-02T08:37:57;94679.63;;;23.57;100.00
8366;BME280;4220;42.502;24.188;2023-07-02T08:40:24;94682.88;;;23.76;100.00
8366;BME280;4220;42.502;24.188;2023-07-02T08:42:50;94683.75;;;23.94;100.00
8366;BME280;4220;42.502;24.188;2023-07-02T08:45:17;94682.94;;;23.85;100.00
8366;BME280;4220;42.502;24.188;2023-07-02T08:47:46;94682.94;;;23.93;100.00
8366;BME280;4220;42.502;24.188;2023-07-02T08:50:13;94689.78;;;23.91;100.00
8366;BME280;4220;42.502;24.188;2023-07-02T08:52:40;94691.34;;;23.75;100.00
8366;BME280;4220;42.502;24.188;2023-07-02T08:55:08;94689.63;;;23.87;100.00
8366;BME280;4220;42.502;24.188;2023-07-02T08:57:35;94679.13;;;23.94;100.00
8366;BME280;4220;42.502;24.188;2023-07-02T09:00:06;94682.09;;;24.24;100.00
8366;BME280;4220;42.502;24.188;2023-07-02T09:02:35;94678.16;;;24.64;100.00
8366;BME280;4220;42.502;24.188;2023-07-02T09:05:04;94685.28;;;25.11;100.00
8366;BME280;4220;42.502;24.188;2023-07-02T09:07:31;94686.53;;;25.40;98.41
8366;BME280;4220;42.502;24.188;2023-07-02T09:09:58;94682.22;;;25.47;94.20
8366;BME280;4220;42.502;24.188;2023-07-02T09:12:26;94677.66;;;25.68;92.52
8366;BME280;4220;42.502;24.188;2023-07-02T09:14:56;94690.56;;;25.80;86.56
8366;BME280;4220;42.502;24.188;2023-07-02T09:17:28;94685.56;;;25.53;86.61
8366;BME280;4220;42.502;24.188;2023-07-02T09:19:55;94688.47;;;25.30;87.39
8366;BME280;4220;42.502;24.188;2023-07-02T09:22:24;94684.81;;;25.09;87.88
8366;BME280;4220;42.502;24.188;2023-07-02T09:24:51;94683.41;;;25.03;89.36
8366;BME280;4220;42.502;24.188;2023-07-02T09:27:19;94691.69;;;25.15;90.18
8366;BME280;4220;42.502;24.188;2023-07-02T09:29:50;94688.34;;;25.18;89.23
8366;BME280;4220;42.502;24.188;2023-07-02T09:32:24;94689.75;;;25.24;90.22
8366;BME280;4220;42.502;24.188;2023-07-02T09:34:53;94683.00;;;25.39;90.17
8366;BME280;4220;42.502;24.188;2023-07-02T09:37:20;94670.41;;;25.81;89.69
8366;BME280;4220;42.502;24.188;2023-07-02T09:39:50;94675.84;;;25.81;89.73
8366;BME280;4220;42.502;24.188;2023-07-02T09:42:17;94678.31;;;25.65;88.83
8366;BME280;4220;42.502;24.188;2023-07-02T09:44:45;94682.53;;;25.28;88.95
8366;BME280;4220;42.502;24.188;2023-07-02T09:47:13;94677.28;;;25.23;89.64
8366;BME280;4220;42.502;24.188;2023-07-02T09:49:45;94677.69;;;24.96;88.90
8366;BME280;4220;42.502;24.188;2023-07-02T09:52:14;94682.59;;;24.94;91.82
8366;BME280;4220;42.502;24.188;2023-07-02T09:54:42;94667.28;;;24.73;91.82
8366;BME280;4220;42.502;24.188;2023-07-02T09:57:10;94674.31;;;24.65;90.26
8366;BME280;4220;42.502;24.188;2023-07-02T09:59:38;94675.75;;;24.54;92.30
8366;BME280;4220;42.502;24.188;2023-07-02T10:02:05;94681.81;;;24.59;89.52
8366;BME280;4220;42.502;24.188;2023-07-02T10:04:41;94680.53;;;24.48;87.88
8366;BME280;4220;42.502;24.188;2023-07-02T10:07:08;94675.25;;;24.43;89.13
8366;BME280;4220;42.502;24.188;2023-07-02T10:09:36;94672.53;;;24.26;89.40
8366;BME280;4220;42.502;24.188;2023-07-02T10:12:17;94678.25;;;24.08;88.58
8366;BME280;4220;42.502;24.188;2023-07-02T10:14:44;94668.34;;;24.12;90.20
8366;BME280;4220;42.502;24.188;2023-07-02T10:17:23;94678.09;;;24.21;89.96
8366;BME280;4220;42.502;24.188;2023-07-02T10:19:53;94665.84;;;24.41;91.00
8366;BME280;4220;42.502;24.188;2023-07-02T10:22:21;94632.22;;;24.25;88.93
8366;BME280;4220;42.502;24.188;2023-07-02T10:24:55;94668.25;;;24.51;88.03
8366;BME280;4220;42.502;24.188;2023-07-02T10:27:37;94664.59;;;24.64;89.21
8366;BME280;4220;42.502;24.188;2023-07-02T10:30:05;94661.38;;;24.62;86.99
8366;BME280;4220;42.502;24.188;2023-07-02T10:32:33;94667.91;;;24.69;90.22
8366;BME280;4220;42.502;24.188;2023-07-02T10:35:00;94648.78;;;24.75;88.70
8366;BME280;4220;42.502;24.188;2023-07-02T10:37:35;94653.59;;;24.78;88.22
8366;BME280;4220;42.502;24.188;2023-07-02T10:40:04;94651.34;;;24.80;87.26
8366;BME280;4220;42.502;24.188;2023-07-02T10:42:32;94656.94;;;24.83;89.34
8366;BME280;4220;42.502;24.188;2023-07-02T10:45:01;94655.31;;;24.99;89.61
8366;BME280;4220;42.502;24.188;2023-07-02T10:47:28;94624.22;;;24.88;91.36
8366;BME280;4220;42.502;24.188;2023-07-02T10:49:55;94649.25;;;25.02;91.56
8366;BME280;4220;42.502;24.188;2023-07-02T10:52:22;94645.94;;;24.88;90.79
8366;BME280;4220;42.502;24.188;2023-07-02T10:54:49;94656.75;;;25.05;90.34
8366;BME280;4220;42.502;24.188;2023-07-02T10:57:19;94641.06;;;25.19;90.60
8366;BME280;4220;42.502;24.188;2023-07-02T10:59:46;94648.59;;;25.60;91.50
8366;BME280;4220;42.502;24.188;2023-07-02T11:02:15;94654.00;;;25.77;88.85
8366;BME280;4220;42.502;24.188;2023-07-02T11:04:42;94644.69;;;25.78;85.21
8366;BME280;4220;42.502;24.188;2023-07-02T11:07:10;94644.22;;;26.14;86.64
8366;BME280;4220;42.502;24.188;2023-07-02T11:09:37;94612.25;;;26.32;84.10
8366;BME280;4220;42.502;24.188;2023-07-02T11:12:05;94638.13;;;27.00;81.79
8366;BME280;4220;42.502;24.188;2023-07-02T11:14:33;94630.25;;;27.31;78.07
8366;BME280;4220;42.502;24.188;2023-07-02T11:17:03;94647.13;;;27.69;75.97
8366;BME280;4220;42.502;24.188;2023-07-02T11:19:32;94646.47;;;27.84;74.79
8366;BME280;4220;42.502;24.188;2023-07-02T11:22:00;94635.88;;;28.31;74.09
8366;BME280;4220;42.502;24.188;2023-07-02T11:24:29;94639.03;;;28.58;74.54
8366;BME280;4220;42.502;24.188;2023-07-02T11:26:57;94634.16;;;28.91;73.07
8366;BME280;4220;42.502;24.188;2023-07-02T11:29:24;94636.22;;;29.37;72.09
8366;BME280;4220;42.502;24.188;2023-07-02T11:31:51;94638.00;;;29.61;70.84
8366;BME280;4220;42.502;24.188;2023-07-02T11:34:20;94638.97;;;29.68;69.93
8366;BME280;4220;42.502;24.188;2023-07-02T11:36:49;94639.88;;;29.88;70.73
8366;BME280;4220;42.502;24.188;2023-07-02T11:39:19;94640.94;;;30.15;69.18
8366;BME280;4220;42.502;24.188;2023-07-02T11:41:47;94643.81;;;30.37;67.69
8366;BME280;4220;42.502;24.188;2023-07-02T11:44:15;94638.69;;;30.71;66.52
8366;BME280;4220;42.502;24.188;2023-07-02T11:46:42;94643.13;;;30.94;65.06
8366;BME280;4220;42.502;24.188;2023-07-02T11:49:09;94649.34;;;31.33;64.37
8366;BME280;4220;42.502;24.188;2023-07-02T11:51:37;94641.91;;;31.76;62.72
8366;BME280;4220;42.502;24.188;2023-07-02T11:54:06;94625.38;;;32.17;61.22
8366;BME280;4220;42.502;24.188;2023-07-02T11:56:33;94636.56;;;32.84;59.82
8366;BME280;4220;42.502;24.188;2023-07-02T11:59:00;94634.47;;;33.04;59.68
8366;BME280;4220;42.502;24.188;2023-07-02T12:01:27;94634.03;;;33.02;59.22
8366;BME280;4220;42.502;24.188;2023-07-02T12:03:54;94633.22;;;33.31;59.34
8366;BME280;4220;42.502;24.188;2023-07-02T12:06:21;94628.00;;;33.22;59.64
8366;BME280;4220;42.502;24.188;2023-07-02T12:08:47;94620.78;;;33.44;59.12
8366;BME280;4220;42.502;24.188;2023-07-02T12:11:16;94621.13;;;33.76;58.00
8366;BME280;4220;42.502;24.188;2023-07-02T12:13:43;94626.63;;;34.19;57.36
8366;BME280;4220;42.502;24.188;2023-07-02T12:16:10;94620.25;;;34.70;56.50
8366;BME280;4220;42.502;24.188;2023-07-02T12:18:36;94612.59;;;35.14;54.30
8366;BME280;4220;42.502;24.188;2023-07-02T12:21:03;94628.13;;;35.54;53.45
8366;BME280;4220;42.502;24.188;2023-07-02T12:23:30;94617.53;;;35.70;53.85
8366;BME280;4220;42.502;24.188;2023-07-02T12:25:57;94626.94;;;35.66;52.89
8366;BME280;4220;42.502;24.188;2023-07-02T12:28:25;94620.97;;;35.35;53.24
8366;BME280;4220;42.502;24.188;2023-07-02T12:30:52;94617.31;;;35.14;53.32
8366;BME280;4220;42.502;24.188;2023-07-02T12:33:19;94615.56;;;34.74;54.13
8366;BME280;4220;42.502;24.188;2023-07-02T12:35:45;94614.81;;;34.19;55.38
8366;BME280;4220;42.502;24.188;2023-07-02T12:38:12;94617.72;;;33.52;57.11
8366;BME280;4220;42.502;24.188;2023-07-02T12:40:39;94609.72;;;32.70;58.29
8366;BME280;4220;42.502;24.188;2023-07-02T12:43:06;94612.66;;;31.60;61.12
8366;BME280;4220;42.502;24.188;2023-07-02T12:45:34;94610.38;;;31.43;62.25
8366;BME280;4220;42.502;24.188;2023-07-02T12:48:02;94597.59;;;31.47;62.88
8366;BME280;4220;42.502;24.188;2023-07-02T12:50:28;94591.97;;;31.63;62.42
8366;BME280;4220;42.502;24.188;2023-07-02T12:52:55;94594.66;;;31.59;62.38
8366;BME280;4220;42.502;24.188;2023-07-02T12:55:22;94594.09;;;31.50;62.16
8366;BME280;4220;42.502;24.188;2023-07-02T12:57:49;94591.50;;;31.38;62.81
8366;BME280;4220;42.502;24.188;2023-07-02T13:00:16;94593.16;;;31.65;62.56
8366;BME280;4220;42.502;24.188;2023-07-02T13:02:45;94588.31;;;31.55;61.54
8366;BME280;4220;42.502;24.188;2023-07-02T13:05:13;94590.81;;;31.64;61.38